createdAt,value
2022-07-31T00:00:28.392Z,4.00
2022-07-31T00:01:31.157Z,8.30
2022-07-31T00:02:33.335Z,7.30
2022-07-31T00:03:36.220Z,6.80
2022-07-31T00:04:38.562Z,7.10
2022-07-31T00:05:41.911Z,6.90
2022-07-31T00:06:44.952Z,7.50
2022-07-31T00:07:47.019Z,7.50
2022-07-31T00:08:49.376Z,4.20
2022-07-31T00:09:53.641Z,6.10
2022-07-31T00:10:56.153Z,7.60
2022-07-31T00:11:58.588Z,7.30
2022-07-31T00:13:01.486Z,7.60
2022-07-31T00:14:03.574Z,7.90
2022-07-31T00:15:08.403Z,7.30
2022-07-31T00:16:11.346Z,6.90
2022-07-31T00:17:13.417Z,7.00
2022-07-31T00:18:15.552Z,7.10
2022-07-31T00:19:17.816Z,6.30
2022-07-31T00:20:21.610Z,7.00
2022-07-31T00:21:23.680Z,6.10
2022-07-31T00:22:26.329Z,6.50
2022-07-31T00:23:29.197Z,5.70
2022-07-31T00:24:32.431Z,2.91
2022-07-31T00:25:35.262Z,5.40
2022-07-31T00:26:37.809Z,7.30
2022-07-31T00:27:41.353Z,5.30
2022-07-31T00:28:43.666Z,7.90
2022-07-31T00:29:45.732Z,5.90
2022-07-31T00:30:48.099Z,5.10
2022-07-31T00:31:50.667Z,6.80
2022-07-31T00:32:52.835Z,5.40
2022-07-31T00:33:55.016Z,6.60
2022-07-31T00:34:57.134Z,6.70
2022-07-31T00:35:59.392Z,7.00
2022-07-31T00:37:03.248Z,7.00
2022-07-31T00:38:26.138Z,6.20
2022-07-31T00:39:10.880Z,5.60
2022-07-31T00:40:16.011Z,7.10
2022-07-31T00:41:18.321Z,7.00
2022-07-31T00:42:24.241Z,6.20
2022-07-31T00:43:27.415Z,6.90
2022-07-31T00:44:31.544Z,4.70
2022-07-31T00:45:34.472Z,6.50
2022-07-31T00:46:41.142Z,5.40
2022-07-31T00:47:44.434Z,7.10
2022-07-31T00:48:46.619Z,5.90
2022-07-31T00:49:49.475Z,7.80
2022-07-31T00:50:52.138Z,6.20
2022-07-31T00:51:54.091Z,5.80
2022-07-31T00:52:57.265Z,7.20
2022-07-31T00:53:59.579Z,6.50
2022-07-31T00:55:01.937Z,5.30
2022-07-31T00:56:05.470Z,6.90
2022-07-31T00:57:07.805Z,6.50
2022-07-31T00:58:09.954Z,6.50
2022-07-31T00:59:12.006Z,6.80
2022-07-31T01:00:15.487Z,7.50
2022-07-31T01:01:19.471Z,7.00
2022-07-31T01:02:21.991Z,6.00
2022-07-31T01:03:24.180Z,7.00
2022-07-31T01:04:26.754Z,3.90
2022-07-31T01:05:30.278Z,5.80
2022-07-31T01:06:32.801Z,7.10
2022-07-31T01:07:37.192Z,7.00
2022-07-31T01:08:39.778Z,5.50
2022-07-31T01:09:41.915Z,6.60
2022-07-31T01:11:03.322Z,7.90
2022-07-31T01:12:13.464Z,7.00
2022-07-31T01:13:19.295Z,6.20
2022-07-31T01:14:25.101Z,6.80
2022-07-31T01:15:29.045Z,6.10
2022-07-31T01:16:35.713Z,7.10
2022-07-31T01:17:41.049Z,6.20
2022-07-31T01:18:44.471Z,7.40
2022-07-31T01:19:51.120Z,6.20
2022-07-31T01:20:56.747Z,7.90
2022-07-31T01:22:33.630Z,6.70
2022-07-31T01:23:42.621Z,8.10
2022-07-31T01:24:57.679Z,8.00
2022-07-31T01:26:21.584Z,7.90
2022-07-31T01:27:51.885Z,6.70
2022-07-31T01:29:06.719Z,6.50
2022-07-31T01:30:10.629Z,8.50
2022-07-31T01:31:27.619Z,7.40
2022-07-31T01:32:27.766Z,5.80
2022-07-31T01:33:35.519Z,3.70
2022-07-31T01:34:51.763Z,8.00
2022-07-31T01:35:57.750Z,7.40
2022-07-31T01:37:40.054Z,7.80
2022-07-31T01:38:45.915Z,7.70
2022-07-31T01:39:52.770Z,7.50
2022-07-31T01:42:15.591Z,7.30
2022-07-31T01:43:25.170Z,8.70
2022-07-31T01:44:29.557Z,7.60
2022-07-31T01:45:33.159Z,8.70
2022-07-31T01:46:41.711Z,7.30
2022-07-31T01:47:43.658Z,7.50
2022-07-31T01:48:47.952Z,7.80
2022-07-31T01:49:54.270Z,8.70
2022-07-31T01:50:59.838Z,8.00
2022-07-31T01:52:04.594Z,7.60
2022-07-31T01:53:09.713Z,7.30
2022-07-31T01:54:15.001Z,7.40
2022-07-31T01:55:17.700Z,8.10
2022-07-31T01:56:22.471Z,9.00
2022-07-31T01:57:26.860Z,7.80
2022-07-31T01:58:33.846Z,7.10
2022-07-31T01:59:42.550Z,6.90
2022-07-31T02:00:48.797Z,7.50
2022-07-31T02:01:52.673Z,6.80
2022-07-31T02:02:56.400Z,7.00
2022-07-31T02:04:01.823Z,5.90
2022-07-31T02:05:07.255Z,7.50
2022-07-31T02:06:14.386Z,6.00
2022-07-31T02:07:18.459Z,5.80
2022-07-31T02:08:22.325Z,6.60
2022-07-31T02:09:28.278Z,4.00
2022-07-31T02:10:31.857Z,6.60
2022-07-31T02:11:35.810Z,7.50
2022-07-31T02:12:41.431Z,6.80
2022-07-31T02:13:47.091Z,5.90
2022-07-31T02:14:51.136Z,5.10
2022-07-31T02:15:56.001Z,6.20
2022-07-31T02:16:59.771Z,7.10
2022-07-31T02:18:04.878Z,6.10
2022-07-31T02:19:10.761Z,6.00
2022-07-31T02:20:16.199Z,5.10
2022-07-31T02:21:18.863Z,4.70
2022-07-31T02:22:21.446Z,6.20
2022-07-31T02:23:25.925Z,6.20
2022-07-31T02:24:29.354Z,7.00
2022-07-31T02:25:34.656Z,4.64
2022-07-31T02:26:39.680Z,4.90
2022-07-31T02:27:53.921Z,5.90
2022-07-31T02:28:50.730Z,5.40
2022-07-31T02:29:56.568Z,5.50
2022-07-31T02:31:03.118Z,5.90
2022-07-31T02:32:08.077Z,5.40
2022-07-31T02:33:23.873Z,6.60
2022-07-31T02:34:29.896Z,6.60
2022-07-31T02:35:33.118Z,5.40
2022-07-31T02:36:36.980Z,6.40
2022-07-31T02:37:43.604Z,4.90
2022-07-31T02:38:47.964Z,5.10
2022-07-31T02:39:54.323Z,3.80
2022-07-31T02:40:59.497Z,6.20
2022-07-31T02:42:05.021Z,6.30
2022-07-31T02:43:10.156Z,5.90
2022-07-31T02:44:14.310Z,4.00
2022-07-31T02:45:18.746Z,6.40
2022-07-31T02:46:22.842Z,6.10
2022-07-31T02:47:26.299Z,6.10
2022-07-31T02:48:30.331Z,5.20
2022-07-31T02:49:35.437Z,5.40
2022-07-31T02:50:40.657Z,7.00
2022-07-31T02:51:43.621Z,5.30
2022-07-31T02:52:47.495Z,5.70
2022-07-31T02:53:50.836Z,5.90
2022-07-31T02:54:54.518Z,6.30
2022-07-31T02:56:00.114Z,5.20
2022-07-31T02:57:03.974Z,5.80
2022-07-31T02:58:07.607Z,5.50
2022-07-31T02:59:10.790Z,6.00
2022-07-31T03:00:23.859Z,6.10
2022-07-31T03:01:28.548Z,5.50
2022-07-31T03:02:36.873Z,6.30
2022-07-31T03:03:35.697Z,4.70
2022-07-31T03:04:37.874Z,5.20
2022-07-31T03:05:40.297Z,5.80
2022-07-31T03:06:42.815Z,6.30
2022-07-31T03:07:45.274Z,3.70
2022-07-31T03:08:47.942Z,5.00
2022-07-31T03:09:51.933Z,6.30
2022-07-31T03:11:01.888Z,4.90
2022-07-31T03:12:05.230Z,6.50
2022-07-31T03:13:10.094Z,5.70
2022-07-31T03:14:15.591Z,5.70
2022-07-31T03:15:21.271Z,5.90
2022-07-31T03:16:25.994Z,6.10
2022-07-31T03:17:38.213Z,5.70
2022-07-31T03:18:34.949Z,5.90
2022-07-31T03:19:37.534Z,6.10
2022-07-31T03:20:43.022Z,5.50
2022-07-31T03:21:46.295Z,6.40
2022-07-31T03:22:50.708Z,5.80
2022-07-31T03:23:55.522Z,5.80
2022-07-31T03:24:59.155Z,4.00
2022-07-31T03:26:03.678Z,5.40
2022-07-31T03:27:06.784Z,5.40
2022-07-31T03:28:10.098Z,7.20
2022-07-31T03:29:42.635Z,4.00
2022-07-31T03:30:18.200Z,3.70
2022-07-31T03:31:21.170Z,5.70
2022-07-31T03:32:23.424Z,5.00
2022-07-31T03:33:25.799Z,4.70
2022-07-31T03:34:28.048Z,5.30
2022-07-31T03:35:30.510Z,6.00
2022-07-31T03:36:33.493Z,1.50
2022-07-31T03:37:35.992Z,2.80
2022-07-31T03:38:42.301Z,4.10
2022-07-31T03:39:43.756Z,7.40
2022-07-31T03:40:47.681Z,6.80
2022-07-31T03:41:51.642Z,7.00
2022-07-31T03:42:55.811Z,4.90
2022-07-31T03:43:59.040Z,5.70
2022-07-31T03:45:03.337Z,6.82
2022-07-31T03:46:07.246Z,6.30
2022-07-31T03:47:09.746Z,6.50
2022-07-31T03:48:12.656Z,6.55
2022-07-31T03:49:15.539Z,6.30
2022-07-31T03:50:19.462Z,4.70
2022-07-31T03:51:22.303Z,4.00
2022-07-31T03:52:25.297Z,7.00
2022-07-31T03:53:28.588Z,6.00
2022-07-31T03:54:30.819Z,3.60
2022-07-31T03:55:38.957Z,5.70
2022-07-31T03:56:45.548Z,5.80
2022-07-31T03:57:49.183Z,6.60
2022-07-31T03:58:52.741Z,5.50
2022-07-31T03:59:57.405Z,6.70
2022-07-31T04:01:00.820Z,6.20
2022-07-31T04:02:10.728Z,5.50
2022-07-31T04:03:16.992Z,5.90
2022-07-31T04:04:26.620Z,6.00
2022-07-31T04:05:34.197Z,5.40
2022-07-31T04:06:37.828Z,6.10
2022-07-31T04:07:40.058Z,5.50
2022-07-31T04:08:42.307Z,5.40
2022-07-31T04:09:44.771Z,4.90
2022-07-31T04:10:48.834Z,5.80
2022-07-31T04:11:52.863Z,6.40
2022-07-31T04:12:55.186Z,4.30
2022-07-31T04:13:57.923Z,4.73
2022-07-31T04:14:59.986Z,4.90
2022-07-31T04:16:03.361Z,5.30
2022-07-31T04:17:06.435Z,4.60
2022-07-31T04:18:09.403Z,6.09
2022-07-31T04:19:16.424Z,6.30
2022-07-31T04:20:20.482Z,4.80
2022-07-31T04:21:22.859Z,5.30
2022-07-31T04:22:26.333Z,5.40
2022-07-31T04:23:32.231Z,4.64
2022-07-31T04:24:53.577Z,5.30
2022-07-31T04:26:20.048Z,5.80
2022-07-31T04:27:19.335Z,6.50
2022-07-31T04:28:22.364Z,5.20
2022-07-31T04:29:24.836Z,5.00
2022-07-31T04:30:29.043Z,4.90
2022-07-31T04:31:31.127Z,4.80
2022-07-31T04:32:35.260Z,5.20
2022-07-31T04:33:48.725Z,5.20
2022-07-31T04:34:44.337Z,5.10
2022-07-31T04:35:47.069Z,4.00
2022-07-31T04:36:50.185Z,5.30
2022-07-31T04:37:52.366Z,4.40
2022-07-31T04:38:55.928Z,4.00
2022-07-31T04:39:58.016Z,4.40
2022-07-31T04:41:00.249Z,4.20
2022-07-31T04:42:03.409Z,4.27
2022-07-31T04:43:07.758Z,3.00
2022-07-31T04:44:10.644Z,4.80
2022-07-31T04:45:17.719Z,4.20
2022-07-31T04:46:20.030Z,4.80
2022-07-31T04:47:22.232Z,4.40
2022-07-31T04:48:26.234Z,4.00
2022-07-31T04:49:30.981Z,4.10
2022-07-31T04:50:35.840Z,4.50
2022-07-31T04:51:38.403Z,4.45
2022-07-31T04:52:41.276Z,4.27
2022-07-31T04:53:46.053Z,2.20
2022-07-31T04:54:48.477Z,3.90
2022-07-31T04:55:50.864Z,4.20
2022-07-31T04:56:53.900Z,4.50
2022-07-31T04:57:56.471Z,4.40
2022-07-31T04:59:01.762Z,4.10
2022-07-31T05:00:06.090Z,3.70
2022-07-31T05:01:08.584Z,4.60
2022-07-31T05:02:12.207Z,2.90
2022-07-31T05:03:15.418Z,4.70
2022-07-31T05:04:18.523Z,4.50
2022-07-31T05:05:20.714Z,3.80
2022-07-31T05:06:32.162Z,4.45
2022-07-31T05:07:34.964Z,3.40
2022-07-31T05:08:39.856Z,4.20
2022-07-31T05:09:42.717Z,3.10
2022-07-31T05:10:45.467Z,3.80
2022-07-31T05:11:48.253Z,4.10
2022-07-31T05:12:50.764Z,4.00
2022-07-31T05:13:55.241Z,2.90
2022-07-31T05:14:59.058Z,4.50
2022-07-31T05:16:01.288Z,3.90
2022-07-31T05:17:03.979Z,3.70
2022-07-31T05:18:08.042Z,3.10
2022-07-31T05:19:23.785Z,3.50
2022-07-31T05:20:44.436Z,4.50
2022-07-31T05:21:58.118Z,4.00
2022-07-31T05:23:16.674Z,3.30
2022-07-31T05:24:22.657Z,4.10
2022-07-31T05:25:33.926Z,3.80
2022-07-31T05:26:37.888Z,2.00
2022-07-31T05:27:41.400Z,4.45
2022-07-31T05:28:44.377Z,4.30
2022-07-31T05:29:48.562Z,4.60
2022-07-31T05:30:51.506Z,3.80
2022-07-31T05:32:00.062Z,4.60
2022-07-31T05:32:57.741Z,3.20
2022-07-31T05:34:00.604Z,3.82
2022-07-31T05:35:03.013Z,3.90
2022-07-31T05:36:06.727Z,4.00
2022-07-31T05:37:09.431Z,4.70
2022-07-31T05:38:12.617Z,4.00
2022-07-31T05:39:16.722Z,4.50
2022-07-31T05:40:33.109Z,4.00
2022-07-31T05:41:52.518Z,3.90
2022-07-31T05:43:11.623Z,3.30
2022-07-31T05:44:32.518Z,4.30
2022-07-31T05:45:35.601Z,4.50
2022-07-31T05:46:39.700Z,3.80
2022-07-31T05:47:42.780Z,4.50
2022-07-31T05:48:45.288Z,3.20
2022-07-31T05:49:47.610Z,3.70
2022-07-31T05:50:51.915Z,4.30
2022-07-31T05:51:55.340Z,3.80
2022-07-31T05:52:58.634Z,3.60
2022-07-31T05:54:19.493Z,3.10
2022-07-31T05:55:41.828Z,3.70
2022-07-31T05:56:55.130Z,4.50
2022-07-31T05:57:59.642Z,3.70
2022-07-31T05:59:02.414Z,4.00
2022-07-31T06:00:05.844Z,4.00
2022-07-31T06:01:13.902Z,4.70
2022-07-31T06:02:17.730Z,3.60
2022-07-31T06:03:38.411Z,4.00
2022-07-31T06:04:42.781Z,3.40
2022-07-31T06:05:45.154Z,3.90
2022-07-31T06:06:47.891Z,4.18
2022-07-31T06:07:51.195Z,4.30
2022-07-31T06:08:55.330Z,4.60
2022-07-31T06:09:57.570Z,3.90
2022-07-31T06:11:00.026Z,4.20
2022-07-31T06:12:03.919Z,3.00
2022-07-31T06:13:06.462Z,3.90
2022-07-31T06:14:08.629Z,4.40
2022-07-31T06:15:35.791Z,3.80
2022-07-31T06:16:35.594Z,4.40
2022-07-31T06:17:43.781Z,4.27
2022-07-31T06:18:44.733Z,4.70
2022-07-31T06:19:47.478Z,4.82
2022-07-31T06:20:51.040Z,3.60
2022-07-31T06:21:54.020Z,4.73
2022-07-31T06:22:58.174Z,3.40
2022-07-31T06:24:02.894Z,5.00
2022-07-31T06:25:11.906Z,4.50
2022-07-31T06:26:17.030Z,4.10
2022-07-31T06:27:33.923Z,4.50
2022-07-31T06:28:48.046Z,3.70
2022-07-31T06:29:41.916Z,4.30
2022-07-31T06:30:35.494Z,4.90
2022-07-31T06:31:38.733Z,5.00
2022-07-31T06:32:41.347Z,3.80
2022-07-31T06:33:43.416Z,4.30
2022-07-31T06:34:47.420Z,4.20
2022-07-31T06:35:50.063Z,3.70
2022-07-31T06:37:00.420Z,3.50
2022-07-31T06:38:02.882Z,4.00
2022-07-31T06:39:06.925Z,4.50
2022-07-31T06:40:15.121Z,5.00
2022-07-31T06:41:38.853Z,3.50
2022-07-31T06:42:43.153Z,5.00
2022-07-31T06:43:47.363Z,5.30
2022-07-31T06:45:09.390Z,3.50
2022-07-31T06:46:31.202Z,0.30
2022-07-31T06:47:52.095Z,4.30
2022-07-31T06:48:59.062Z,4.30
2022-07-31T06:50:01.328Z,5.00
2022-07-31T06:52:14.144Z,4.40
2022-07-31T06:53:16.498Z,4.20
2022-07-31T06:54:19.074Z,3.60
2022-07-31T06:55:23.046Z,4.00
2022-07-31T06:56:28.552Z,4.90
2022-07-31T06:57:31.086Z,5.40
2022-07-31T06:58:33.423Z,3.80
2022-07-31T06:59:40.229Z,4.80
2022-07-31T07:00:42.759Z,3.80
2022-07-31T07:01:45.150Z,4.70
2022-07-31T07:02:48.692Z,4.40
2022-07-31T07:03:51.079Z,4.30
2022-07-31T07:05:05.241Z,3.60
2022-07-31T07:05:58.060Z,4.50
2022-07-31T07:07:00.725Z,4.60
2022-07-31T07:08:03.427Z,4.90
2022-07-31T07:09:06.272Z,3.50
2022-07-31T07:10:09.046Z,4.70
2022-07-31T07:11:31.911Z,4.00
2022-07-31T07:12:34.775Z,4.30
2022-07-31T07:13:45.829Z,4.60
2022-07-31T07:14:41.935Z,4.90
2022-07-31T07:15:43.998Z,4.70
2022-07-31T07:16:47.954Z,3.64
2022-07-31T07:17:51.342Z,4.50
2022-07-31T07:18:55.976Z,4.00
2022-07-31T07:19:59.283Z,4.20
2022-07-31T07:21:01.744Z,2.70
2022-07-31T07:22:05.808Z,3.50
2022-07-31T07:23:08.407Z,3.90
2022-07-31T07:24:15.389Z,3.90
2022-07-31T07:25:22.458Z,2.90
2022-07-31T07:26:26.563Z,4.00
2022-07-31T07:27:29.503Z,3.80
2022-07-31T07:28:31.711Z,3.70
2022-07-31T07:29:36.043Z,3.70
2022-07-31T07:30:39.303Z,2.20
2022-07-31T07:31:41.752Z,3.30
2022-07-31T07:32:43.840Z,4.40
2022-07-31T07:33:47.110Z,4.30
2022-07-31T07:34:59.967Z,4.30
2022-07-31T07:35:57.648Z,3.80
2022-07-31T07:37:00.625Z,3.70
2022-07-31T07:38:05.275Z,4.20
2022-07-31T07:39:09.263Z,4.50
2022-07-31T07:40:12.323Z,4.30
2022-07-31T07:41:15.061Z,3.55
2022-07-31T07:42:19.173Z,3.70
2022-07-31T07:43:21.352Z,3.40
2022-07-31T07:44:24.678Z,3.50
2022-07-31T07:45:27.619Z,5.20
2022-07-31T07:46:31.074Z,3.80
2022-07-31T07:47:53.869Z,3.60
2022-07-31T07:48:40.943Z,3.20
2022-07-31T07:49:45.058Z,3.60
2022-07-31T07:50:49.243Z,3.30
2022-07-31T07:52:00.730Z,3.10
2022-07-31T07:53:18.093Z,3.80
2022-07-31T07:54:39.750Z,3.20
2022-07-31T07:55:48.590Z,3.30
2022-07-31T07:57:19.759Z,3.20
2022-07-31T07:58:38.883Z,3.70
2022-07-31T08:00:54.069Z,4.60
2022-07-31T08:01:57.842Z,3.60
2022-07-31T08:03:02.902Z,3.90
2022-07-31T08:04:12.176Z,4.00
2022-07-31T08:05:16.760Z,2.00
2022-07-31T08:06:20.755Z,3.90
2022-07-31T08:07:42.263Z,3.60
2022-07-31T08:08:36.080Z,3.70
2022-07-31T08:09:56.214Z,2.50
2022-07-31T08:11:06.590Z,3.20
2022-07-31T08:12:20.113Z,2.60
2022-07-31T08:13:33.405Z,3.20
2022-07-31T08:14:53.986Z,2.90
2022-07-31T08:16:07.889Z,2.90
2022-07-31T08:17:13.067Z,4.10
2022-07-31T08:18:16.050Z,3.70
2022-07-31T08:19:19.177Z,2.70
2022-07-31T08:20:21.855Z,1.80
2022-07-31T08:21:26.109Z,4.10
2022-07-31T08:22:28.189Z,4.60
2022-07-31T08:23:30.549Z,3.50
2022-07-31T08:24:33.419Z,2.80
2022-07-31T08:25:35.973Z,3.10
2022-07-31T08:26:41.419Z,3.10
2022-07-31T08:27:43.691Z,4.10
2022-07-31T08:28:49.717Z,3.20
2022-07-31T08:29:55.935Z,3.40
2022-07-31T08:31:00.561Z,3.70
2022-07-31T08:32:03.338Z,2.50
2022-07-31T08:33:16.644Z,2.50
2022-07-31T08:34:31.246Z,3.80
2022-07-31T08:35:25.044Z,3.90
2022-07-31T08:36:28.373Z,3.30
2022-07-31T08:38:02.770Z,3.10
2022-07-31T08:38:37.514Z,3.90
2022-07-31T08:39:59.215Z,2.40
2022-07-31T08:41:03.002Z,0.00
2022-07-31T08:42:09.260Z,3.60
2022-07-31T08:44:00.300Z,3.80
2022-07-31T08:44:18.568Z,3.90
2022-07-31T08:45:22.811Z,3.90
2022-07-31T08:46:32.786Z,3.60
2022-07-31T08:47:35.501Z,3.80
2022-07-31T08:48:40.963Z,3.00
2022-07-31T08:49:45.704Z,4.10
2022-07-31T08:50:53.772Z,4.20
2022-07-31T08:52:24.625Z,4.10
2022-07-31T08:53:35.755Z,4.00
2022-07-31T08:54:44.257Z,4.10
2022-07-31T08:55:55.106Z,3.40
2022-07-31T08:58:11.578Z,3.80
2022-07-31T08:59:14.292Z,3.60
2022-07-31T09:00:18.596Z,3.10
2022-07-31T09:01:22.956Z,4.00
2022-07-31T09:02:25.352Z,1.40
2022-07-31T09:03:46.088Z,3.70
2022-07-31T09:04:52.596Z,3.30
2022-07-31T09:05:54.468Z,2.50
2022-07-31T09:06:57.609Z,3.09
2022-07-31T09:08:00.010Z,3.09
2022-07-31T09:09:04.750Z,4.10
2022-07-31T09:10:26.551Z,3.80
2022-07-31T09:13:13.164Z,3.30
2022-07-31T09:14:28.150Z,4.10
2022-07-31T09:15:31.063Z,3.90
2022-07-31T09:16:44.209Z,4.00
2022-07-31T09:17:48.723Z,4.10
2022-07-31T09:19:02.751Z,3.10
2022-07-31T09:20:11.252Z,3.80
2022-07-31T09:21:14.021Z,4.00
2022-07-31T09:22:24.388Z,3.91
2022-07-31T09:23:27.887Z,1.80
2022-07-31T09:24:39.438Z,3.80
2022-07-31T09:25:37.896Z,3.00
2022-07-31T09:26:41.499Z,5.10
2022-07-31T09:27:46.422Z,4.30
2022-07-31T09:28:48.806Z,4.40
2022-07-31T09:29:51.267Z,4.20
2022-07-31T09:31:03.055Z,4.70
2022-07-31T09:32:16.495Z,4.50
2022-07-31T09:33:40.279Z,3.80
2022-07-31T09:34:46.066Z,2.90
2022-07-31T09:35:52.267Z,3.50
2022-07-31T09:36:54.857Z,3.10
2022-07-31T09:38:17.235Z,3.80
2022-07-31T09:39:35.944Z,4.30
2022-07-31T09:40:57.120Z,4.10
2022-07-31T09:42:16.289Z,3.40
2022-07-31T09:43:34.357Z,4.00
2022-07-31T09:44:41.154Z,4.60
2022-07-31T09:45:48.193Z,4.40
2022-07-31T09:46:50.967Z,4.00
2022-07-31T09:48:07.568Z,4.00
2022-07-31T09:49:10.121Z,3.40
2022-07-31T09:50:16.445Z,2.80
2022-07-31T09:51:18.996Z,3.80
2022-07-31T09:52:22.330Z,4.70
2022-07-31T09:53:25.502Z,3.80
2022-07-31T09:54:31.608Z,3.60
2022-07-31T09:55:36.595Z,3.70
2022-07-31T09:56:40.439Z,3.20
2022-07-31T09:57:54.097Z,2.80
2022-07-31T09:58:57.900Z,3.90
2022-07-31T10:00:00.172Z,3.82
2022-07-31T10:01:03.684Z,4.60
2022-07-31T10:02:08.360Z,2.90
2022-07-31T10:03:16.605Z,4.80
2022-07-31T10:04:21.607Z,4.40
2022-07-31T10:05:26.593Z,2.90
2022-07-31T10:06:33.919Z,3.50
2022-07-31T10:07:39.269Z,4.20
2022-07-31T10:08:49.707Z,4.00
2022-07-31T10:10:06.079Z,2.90
2022-07-31T10:11:16.427Z,3.00
2022-07-31T10:12:19.190Z,4.10
2022-07-31T10:13:23.394Z,3.60
2022-07-31T10:14:33.479Z,3.80
2022-07-31T10:15:40.202Z,4.10
2022-07-31T10:17:03.690Z,3.10
2022-07-31T10:18:18.982Z,4.80
2022-07-31T10:19:32.885Z,3.40
2022-07-31T10:20:55.264Z,3.80
2022-07-31T10:22:06.588Z,3.80
2022-07-31T10:23:21.363Z,4.20
2022-07-31T10:24:28.546Z,4.10
2022-07-31T10:25:35.975Z,4.60
2022-07-31T10:26:59.809Z,4.00
2022-07-31T10:27:45.512Z,3.50
2022-07-31T10:28:49.397Z,3.30
2022-07-31T10:29:53.525Z,3.90
2022-07-31T10:30:57.016Z,3.80
2022-07-31T10:32:00.278Z,4.00
2022-07-31T10:33:04.628Z,4.20
2022-07-31T10:34:17.799Z,4.10
2022-07-31T10:35:55.700Z,4.80
2022-07-31T10:37:17.129Z,3.70
2022-07-31T10:38:47.224Z,7.20
2022-07-31T10:41:47.430Z,3.30
2022-07-31T10:43:13.137Z,4.20
2022-07-31T10:44:29.539Z,4.50
2022-07-31T10:45:50.955Z,3.20
2022-07-31T10:46:55.575Z,4.00
2022-07-31T10:48:01.638Z,3.70
2022-07-31T10:49:39.620Z,3.90
2022-07-31T10:51:02.669Z,4.40
2022-07-31T10:52:07.172Z,3.70
2022-07-31T10:53:18.445Z,3.60
2022-07-31T10:54:31.687Z,3.90
2022-07-31T10:55:38.559Z,4.40
2022-07-31T10:56:46.225Z,4.60
2022-07-31T10:58:10.587Z,4.70
2022-07-31T10:59:14.578Z,3.10
2022-07-31T11:00:34.665Z,3.20
2022-07-31T11:01:55.289Z,4.80
2022-07-31T11:03:19.530Z,2.70
2022-07-31T11:04:40.494Z,3.90
2022-07-31T11:06:00.956Z,4.10
2022-07-31T11:07:15.996Z,3.60
2022-07-31T11:08:42.412Z,2.20
2022-07-31T11:09:50.616Z,3.40
2022-07-31T11:11:13.976Z,3.30
2022-07-31T11:12:21.041Z,3.40
2022-07-31T11:13:49.732Z,2.80
2022-07-31T11:15:22.261Z,3.70
2022-07-31T11:16:30.062Z,3.40
2022-07-31T11:18:20.992Z,3.40
2022-07-31T11:19:04.190Z,4.10
2022-07-31T11:20:30.349Z,3.90
2022-07-31T11:21:41.272Z,4.50
2022-07-31T11:23:01.782Z,2.50
2022-07-31T11:24:18.842Z,3.70
2022-07-31T11:25:21.584Z,3.60
2022-07-31T11:26:33.561Z,3.90
2022-07-31T11:27:32.606Z,3.60
2022-07-31T11:28:35.480Z,3.50
2022-07-31T11:29:58.993Z,3.20
2022-07-31T11:30:50.283Z,4.00
2022-07-31T11:31:52.743Z,3.00
2022-07-31T11:32:54.860Z,4.22
2022-07-31T11:34:00.752Z,4.56
2022-07-31T11:35:04.121Z,2.00
2022-07-31T11:36:10.541Z,5.10
2022-07-31T11:37:30.579Z,4.30
2022-07-31T11:38:40.181Z,3.10
2022-07-31T11:39:43.873Z,3.90
2022-07-31T11:40:50.939Z,3.40
2022-07-31T11:41:55.837Z,4.30
2022-07-31T11:43:25.759Z,4.60
2022-07-31T11:44:03.503Z,4.50
2022-07-31T11:45:10.980Z,4.00
2022-07-31T11:46:14.274Z,4.10
2022-07-31T11:48:09.418Z,2.90
2022-07-31T11:48:22.472Z,4.00
2022-07-31T11:49:39.218Z,4.00
2022-07-31T11:50:42.866Z,3.90
2022-07-31T11:51:47.615Z,4.20
2022-07-31T11:52:49.786Z,3.70
2022-07-31T11:53:57.438Z,4.22
2022-07-31T11:55:09.033Z,2.80
2022-07-31T11:56:14.343Z,5.80
2022-07-31T11:57:16.570Z,4.60
2022-07-31T11:58:20.731Z,4.67
2022-07-31T11:59:45.660Z,4.20
2022-07-31T12:00:50.091Z,3.80
2022-07-31T12:01:54.155Z,3.70
2022-07-31T12:02:56.907Z,2.60
2022-07-31T12:04:07.551Z,4.00
2022-07-31T12:05:03.877Z,4.70
2022-07-31T12:06:08.516Z,4.50
2022-07-31T12:07:12.523Z,4.00
2022-07-31T12:08:15.740Z,3.33
2022-07-31T12:10:02.261Z,3.80
2022-07-31T12:10:23.901Z,4.40
2022-07-31T12:11:26.549Z,4.44
2022-07-31T12:12:28.880Z,2.56
2022-07-31T12:13:32.505Z,2.89
2022-07-31T12:14:37.630Z,3.55
2022-07-31T12:15:39.680Z,3.10
2022-07-31T12:16:43.172Z,3.60
2022-07-31T12:17:46.765Z,3.70
2022-07-31T12:18:54.012Z,4.09
2022-07-31T12:19:59.886Z,2.50
2022-07-31T12:21:03.980Z,4.70
2022-07-31T12:22:14.241Z,4.50
2022-07-31T12:23:38.412Z,3.90
2022-07-31T12:24:21.420Z,2.80
2022-07-31T12:25:23.464Z,3.10
2022-07-31T12:26:29.654Z,3.20
2022-07-31T12:27:31.968Z,4.20
2022-07-31T12:28:34.050Z,3.22
2022-07-31T12:29:38.151Z,3.67
2022-07-31T12:30:41.639Z,3.10
2022-07-31T12:31:53.175Z,3.64
2022-07-31T12:33:07.038Z,3.90
2022-07-31T12:34:09.126Z,3.60
2022-07-31T12:35:15.217Z,3.67
2022-07-31T12:36:18.419Z,3.90
2022-07-31T12:37:20.481Z,2.56
2022-07-31T12:38:40.810Z,3.22
2022-07-31T12:39:47.462Z,3.60
2022-07-31T12:40:36.682Z,3.70
2022-07-31T12:41:42.831Z,3.89
2022-07-31T12:42:44.983Z,4.70
2022-07-31T12:43:51.539Z,4.78
2022-07-31T12:44:53.278Z,3.40
2022-07-31T12:45:55.299Z,3.50
2022-07-31T12:46:57.820Z,4.11
2022-07-31T12:48:00.188Z,3.67
2022-07-31T12:49:04.260Z,3.67
2022-07-31T12:50:07.491Z,4.70
2022-07-31T12:51:09.620Z,4.50
2022-07-31T12:52:11.745Z,4.11
2022-07-31T12:53:13.934Z,4.33
2022-07-31T12:54:16.961Z,3.78
2022-07-31T12:55:19.774Z,4.30
2022-07-31T12:56:24.089Z,4.27
2022-07-31T12:57:34.125Z,4.20
2022-07-31T12:58:37.426Z,3.70
2022-07-31T12:59:40.226Z,4.40
2022-07-31T13:00:42.517Z,3.10
2022-07-31T13:01:45.705Z,3.67
2022-07-31T13:02:48.050Z,4.20
2022-07-31T13:03:50.761Z,3.78
2022-07-31T13:04:53.855Z,5.11
2022-07-31T13:05:55.991Z,3.20
2022-07-31T13:06:58.664Z,2.78
2022-07-31T13:08:00.720Z,3.56
2022-07-31T13:09:04.415Z,4.44
2022-07-31T13:10:21.702Z,4.20
2022-07-31T13:11:12.658Z,4.20
2022-07-31T13:12:15.739Z,5.30
2022-07-31T13:13:20.116Z,3.40
2022-07-31T13:14:22.767Z,5.20
2022-07-31T13:15:25.933Z,2.50
2022-07-31T13:16:29.857Z,3.36
2022-07-31T13:17:31.936Z,3.90
2022-07-31T13:18:35.399Z,4.56
2022-07-31T13:19:38.288Z,5.18
2022-07-31T13:20:40.583Z,4.90
2022-07-31T13:21:48.257Z,4.44
2022-07-31T13:22:47.514Z,4.20
2022-07-31T13:23:54.367Z,4.00
2022-07-31T13:24:55.860Z,2.40
2022-07-31T13:25:59.227Z,5.20
2022-07-31T13:27:01.680Z,5.60
2022-07-31T13:28:04.203Z,3.11
2022-07-31T13:29:06.807Z,3.33
2022-07-31T13:30:12.375Z,3.90
2022-07-31T13:31:14.593Z,4.70
2022-07-31T13:32:16.563Z,4.78
2022-07-31T13:33:18.499Z,6.11
2022-07-31T13:34:20.558Z,4.00
2022-07-31T13:35:27.457Z,3.67
2022-07-31T13:36:30.782Z,5.40
2022-07-31T13:37:32.661Z,6.00
2022-07-31T13:38:36.964Z,5.44
2022-07-31T13:39:39.026Z,5.20
2022-07-31T13:40:42.821Z,4.30
2022-07-31T13:41:44.963Z,4.33
2022-07-31T13:42:47.142Z,4.67
2022-07-31T13:44:00.458Z,4.22
2022-07-31T13:44:54.193Z,3.60
2022-07-31T13:45:57.543Z,6.22
2022-07-31T13:47:01.440Z,5.00
2022-07-31T13:48:09.254Z,4.45
2022-07-31T13:49:09.738Z,4.40
2022-07-31T13:50:14.071Z,4.30
2022-07-31T13:51:16.789Z,4.40
2022-07-31T13:52:21.727Z,3.20
2022-07-31T13:53:25.094Z,4.10
2022-07-31T13:54:28.924Z,2.80
2022-07-31T13:55:31.247Z,4.18
2022-07-31T13:56:42.194Z,4.60
2022-07-31T13:57:40.363Z,4.50
2022-07-31T13:58:42.548Z,3.80
2022-07-31T13:59:44.581Z,4.22
2022-07-31T14:00:47.374Z,3.67
2022-07-31T14:02:03.087Z,4.70
2022-07-31T14:02:54.029Z,4.10
2022-07-31T14:03:57.124Z,4.33
2022-07-31T14:05:00.352Z,4.70
2022-07-31T14:06:03.577Z,4.56
2022-07-31T14:07:07.503Z,5.20
2022-07-31T14:08:33.021Z,4.40
2022-07-31T14:09:16.028Z,3.90
2022-07-31T14:10:20.936Z,3.90
2022-07-31T14:11:22.537Z,4.50
2022-07-31T14:12:25.734Z,4.33
2022-07-31T14:13:28.952Z,5.30
2022-07-31T14:14:31.178Z,4.10
2022-07-31T14:15:34.276Z,3.22
2022-07-31T14:16:36.512Z,4.50
2022-07-31T14:17:39.531Z,4.78
2022-07-31T14:18:42.564Z,4.90
2022-07-31T14:19:45.758Z,2.70
2022-07-31T14:20:48.426Z,5.10
2022-07-31T14:21:56.700Z,5.20
2022-07-31T14:22:58.082Z,4.70
2022-07-31T14:24:00.717Z,4.40
2022-07-31T14:25:03.795Z,4.56
2022-07-31T14:26:06.358Z,4.60
2022-07-31T14:27:09.389Z,4.11
2022-07-31T14:28:11.604Z,4.60
2022-07-31T14:29:13.614Z,4.22
2022-07-31T14:30:19.877Z,3.40
2022-07-31T14:31:22.365Z,4.30
2022-07-31T14:32:25.242Z,5.22
2022-07-31T14:33:27.547Z,4.00
2022-07-31T14:34:35.419Z,4.33
2022-07-31T14:35:33.820Z,3.00
2022-07-31T14:36:36.634Z,4.22
2022-07-31T14:37:39.010Z,5.22
2022-07-31T14:38:41.126Z,4.33
2022-07-31T14:39:43.431Z,4.78
2022-07-31T14:40:45.636Z,3.67
2022-07-31T14:41:47.646Z,4.89
2022-07-31T14:42:49.695Z,2.89
2022-07-31T14:43:52.055Z,4.56
2022-07-31T14:44:54.113Z,4.56
2022-07-31T14:45:56.140Z,4.00
2022-07-31T14:46:59.032Z,4.11